sensor_id;sensor_type;location;lat;lon;timestamp;P1;durP1;ratioP1;P2;durP2;ratioP2
3726;SDS011;1879;45.876;12.300;2024-03-17T00:00:37;83.33;;;75.17;;
3726;SDS011;1879;45.876;12.300;2024-03-17T00:03:05;81.77;;;73.63;;
3726;SDS011;1879;45.876;12.300;2024-03-17T00:05:34;75.70;;;68.60;;
3726;SDS011;1879;45.876;12.300;2024-03-17T00:08:00;81.73;;;73.47;;
3726;SDS011;1879;45.876;12.300;2024-03-17T00:10:29;85.50;;;76.23;;
3726;SDS011;1879;45.876;12.300;2024-03-17T00:12:55;81.07;;;73.10;;
3726;SDS011;1879;45.876;12.300;2024-03-17T00:15:22;86.93;;;78.33;;
3726;SDS011;1879;45.876;12.300;2024-03-17T00:17:48;84.90;;;76.57;;
3726;SDS011;1879;45.876;12.300;2024-03-17T00:20:15;77.23;;;69.67;;
3726;SDS011;1879;45.876;12.300;2024-03-17T00:22:46;79.70;;;71.87;;
3726;SDS011;1879;45.876;12.300;2024-03-17T00:25:13;78.13;;;70.40;;
3726;SDS011;1879;45.876;12.300;2024-03-17T00:27:40;79.07;;;71.33;;
3726;SDS011;1879;45.876;12.300;2024-03-17T00:30:09;77.37;;;69.40;;
3726;SDS011;1879;45.876;12.300;2024-03-17T00:32:38;78.90;;;71.17;;
3726;SDS011;1879;45.876;12.300;2024-03-17T00:35:05;75.57;;;68.17;;
3726;SDS011;1879;45.876;12.300;2024-03-17T00:37:32;78.27;;;70.67;;
3726;SDS011;1879;45.876;12.300;2024-03-17T00:40:01;81.17;;;73.00;;
3726;SDS011;1879;45.876;12.300;2024-03-17T00:42:27;73.77;;;66.23;;
3726;SDS011;1879;45.876;12.300;2024-03-17T00:44:55;76.57;;;69.10;;
3726;SDS011;1879;45.876;12.300;2024-03-17T00:47:21;78.30;;;70.60;;
3726;SDS011;1879;45.876;12.300;2024-03-17T00:49:47;83.97;;;75.47;;
3726;SDS011;1879;45.876;12.300;2024-03-17T00:52:15;80.10;;;72.30;;
3726;SDS011;1879;45.876;12.300;2024-03-17T00:54:42;81.83;;;73.43;;
3726;SDS011;1879;45.876;12.300;2024-03-17T00:57:09;95.97;;;86.30;;
3726;SDS011;1879;45.876;12.300;2024-03-17T00:59:36;95.10;;;85.63;;
3726;SDS011;1879;45.876;12.300;2024-03-17T01:02:02;112.50;;;100.97;;
3726;SDS011;1879;45.876;12.300;2024-03-17T01:04:29;91.43;;;82.03;;
3726;SDS011;1879;45.876;12.300;2024-03-17T01:06:58;93.23;;;83.73;;
3726;SDS011;1879;45.876;12.300;2024-03-17T01:09:25;102.10;;;91.87;;
3726;SDS011;1879;45.876;12.300;2024-03-17T01:11:51;99.33;;;89.23;;
3726;SDS011;1879;45.876;12.300;2024-03-17T01:14:20;91.73;;;83.00;;
3726;SDS011;1879;45.876;12.300;2024-03-17T01:16:45;95.47;;;85.63;;
3726;SDS011;1879;45.876;12.300;2024-03-17T01:19:12;91.23;;;82.27;;
3726;SDS011;1879;45.876;12.300;2024-03-17T01:21:38;94.87;;;85.50;;
3726;SDS011;1879;45.876;12.300;2024-03-17T01:24:05;97.37;;;87.90;;
3726;SDS011;1879;45.876;12.300;2024-03-17T01:26:31;91.63;;;82.60;;
3726;SDS011;1879;45.876;12.300;2024-03-17T01:28:58;92.40;;;83.17;;
3726;SDS011;1879;45.876;12.300;2024-03-17T01:31:25;93.27;;;84.13;;
3726;SDS011;1879;45.876;12.300;2024-03-17T01:33:52;97.90;;;88.43;;
3726;SDS011;1879;45.876;12.300;2024-03-17T01:36:18;92.47;;;82.93;;
3726;SDS011;1879;45.876;12.300;2024-03-17T01:38:45;90.07;;;80.77;;
3726;SDS011;1879;45.876;12.300;2024-03-17T01:41:10;83.60;;;75.40;;
3726;SDS011;1879;45.876;12.300;2024-03-17T01:43:38;88.93;;;80.20;;
3726;SDS011;1879;45.876;12.300;2024-03-17T01:46:04;86.27;;;77.70;;
3726;SDS011;1879;45.876;12.300;2024-03-17T01:48:33;83.13;;;75.10;;
3726;SDS011;1879;45.876;12.300;2024-03-17T01:51:00;82.07;;;73.60;;
3726;SDS011;1879;45.876;12.300;2024-03-17T01:53:28;86.10;;;77.40;;
3726;SDS011;1879;45.876;12.300;2024-03-17T01:55:55;94.20;;;85.03;;
3726;SDS011;1879;45.876;12.300;2024-03-17T01:58:24;95.40;;;86.47;;
3726;SDS011;1879;45.876;12.300;2024-03-17T02:00:50;97.67;;;87.87;;
3726;SDS011;1879;45.876;12.300;2024-03-17T02:03:17;92.83;;;83.40;;
3726;SDS011;1879;45.876;12.300;2024-03-17T02:05:45;94.47;;;84.87;;
3726;SDS011;1879;45.876;12.300;2024-03-17T02:08:12;88.33;;;79.80;;
3726;SDS011;1879;45.876;12.300;2024-03-17T02:10:38;84.13;;;75.60;;
3726;SDS011;1879;45.876;12.300;2024-03-17T02:13:05;83.27;;;75.17;;
3726;SDS011;1879;45.876;12.300;2024-03-17T02:15:33;86.47;;;77.80;;
3726;SDS011;1879;45.876;12.300;2024-03-17T02:17:59;84.90;;;76.27;;
3726;SDS011;1879;45.876;12.300;2024-03-17T02:20:26;85.20;;;76.73;;
3726;SDS011;1879;45.876;12.300;2024-03-17T02:23:09;84.77;;;76.37;;
3726;SDS011;1879;45.876;12.300;2024-03-17T02:25:36;88.07;;;79.20;;
3726;SDS011;1879;45.876;12.300;2024-03-17T02:28:02;93.83;;;84.60;;
3726;SDS011;1879;45.876;12.300;2024-03-17T02:30:30;84.63;;;76.20;;
3726;SDS011;1879;45.876;12.300;2024-03-17T02:32:56;85.73;;;77.20;;
3726;SDS011;1879;45.876;12.300;2024-03-17T02:35:23;83.20;;;74.70;;
3726;SDS011;1879;45.876;12.300;2024-03-17T02:37:49;74.87;;;67.10;;
3726;SDS011;1879;45.876;12.300;2024-03-17T02:40:18;71.80;;;64.90;;
3726;SDS011;1879;45.876;12.300;2024-03-17T02:42:44;74.03;;;66.33;;
3726;SDS011;1879;45.876;12.300;2024-03-17T02:45:11;73.73;;;66.00;;
3726;SDS011;1879;45.876;12.300;2024-03-17T02:47:38;76.03;;;68.27;;
3726;SDS011;1879;45.876;12.300;2024-03-17T02:50:06;78.00;;;70.20;;
3726;SDS011;1879;45.876;12.300;2024-03-17T02:52:34;75.57;;;68.10;;
3726;SDS011;1879;45.876;12.300;2024-03-17T02:55:01;70.03;;;62.97;;
3726;SDS011;1879;45.876;12.300;2024-03-17T02:57:29;76.30;;;68.77;;
3726;SDS011;1879;45.876;12.300;2024-03-17T02:59:57;76.57;;;68.43;;
3726;SDS011;1879;45.876;12.300;2024-03-17T03:02:24;72.03;;;64.83;;
3726;SDS011;1879;45.876;12.300;2024-03-17T03:04:51;79.10;;;71.30;;
3726;SDS011;1879;45.876;12.300;2024-03-17T03:07:18;72.30;;;64.90;;
3726;SDS011;1879;45.876;12.300;2024-03-17T03:09:44;70.77;;;64.07;;
3726;SDS011;1879;45.876;12.300;2024-03-17T03:12:12;73.37;;;65.77;;
3726;SDS011;1879;45.876;12.300;2024-03-17T03:14:40;70.20;;;63.43;;
3726;SDS011;1879;45.876;12.300;2024-03-17T03:17:07;72.17;;;64.57;;
3726;SDS011;1879;45.876;12.300;2024-03-17T03:19:35;68.60;;;62.00;;
3726;SDS011;1879;45.876;12.300;2024-03-17T03:22:01;79.20;;;71.20;;
3726;SDS011;1879;45.876;12.300;2024-03-17T03:24:28;75.43;;;68.13;;
3726;SDS011;1879;45.876;12.300;2024-03-17T03:26:55;75.17;;;67.50;;
3726;SDS011;1879;45.876;12.300;2024-03-17T03:29:22;72.97;;;66.03;;
3726;SDS011;1879;45.876;12.300;2024-03-17T03:31:50;81.33;;;72.63;;
3726;SDS011;1879;45.876;12.300;2024-03-17T03:34:17;82.57;;;74.57;;
3726;SDS011;1879;45.876;12.300;2024-03-17T03:36:44;84.37;;;76.10;;
3726;SDS011;1879;45.876;12.300;2024-03-17T03:39:11;82.70;;;74.10;;
3726;SDS011;1879;45.876;12.300;2024-03-17T03:41:39;88.87;;;79.80;;
3726;SDS011;1879;45.876;12.300;2024-03-17T03:44:06;79.53;;;71.93;;
3726;SDS011;1879;45.876;12.300;2024-03-17T03:46:35;80.40;;;72.70;;
3726;SDS011;1879;45.876;12.300;2024-03-17T03:49:03;82.50;;;74.40;;
3726;SDS011;1879;45.876;12.300;2024-03-17T03:51:30;83.37;;;74.70;;
3726;SDS011;1879;45.876;12.300;2024-03-17T03:53:57;83.83;;;74.80;;
3726;SDS011;1879;45.876;12.300;2024-03-17T03:56:24;88.00;;;79.27;;
3726;SDS011;1879;45.876;12.300;2024-03-17T03:58:51;87.93;;;79.27;;
3726;SDS011;1879;45.876;12.300;2024-03-17T04:01:18;84.40;;;76.10;;
3726;SDS011;1879;45.876;12.300;2024-03-17T04:03:47;83.87;;;74.57;;
3726;SDS011;1879;45.876;12.300;2024-03-17T04:06:16;81.43;;;73.33;;
3726;SDS011;1879;45.876;12.300;2024-03-17T04:08:43;87.17;;;77.97;;
3726;SDS011;1879;45.876;12.300;2024-03-17T04:11:10;77.47;;;69.87;;
3726;SDS011;1879;45.876;12.300;2024-03-17T04:13:37;70.77;;;63.73;;
3726;SDS011;1879;45.876;12.300;2024-03-17T04:16:04;69.40;;;62.47;;
3726;SDS011;1879;45.876;12.300;2024-03-17T04:18:33;70.97;;;64.07;;
3726;SDS011;1879;45.876;12.300;2024-03-17T04:21:01;69.40;;;62.70;;
3726;SDS011;1879;45.876;12.300;2024-03-17T04:23:31;68.80;;;61.77;;
3726;SDS011;1879;45.876;12.300;2024-03-17T04:25:58;67.53;;;60.50;;
3726;SDS011;1879;45.876;12.300;2024-03-17T04:28:26;66.37;;;59.50;;
3726;SDS011;1879;45.876;12.300;2024-03-17T04:31:01;68.17;;;61.57;;
3726;SDS011;1879;45.876;12.300;2024-03-17T04:33:29;68.53;;;58.80;;
3726;SDS011;1879;45.876;12.300;2024-03-17T04:35:56;66.87;;;59.60;;
3726;SDS011;1879;45.876;12.300;2024-03-17T04:38:23;65.40;;;58.60;;
3726;SDS011;1879;45.876;12.300;2024-03-17T04:40:51;65.20;;;58.43;;
3726;SDS011;1879;45.876;12.300;2024-03-17T04:43:24;69.00;;;61.40;;
3726;SDS011;1879;45.876;12.300;2024-03-17T04:45:58;63.87;;;57.60;;
3726;SDS011;1879;45.876;12.300;2024-03-17T04:48:26;62.53;;;56.30;;
3726;SDS011;1879;45.876;12.300;2024-03-17T04:50:53;67.00;;;60.40;;
3726;SDS011;1879;45.876;12.300;2024-03-17T04:53:20;72.70;;;65.37;;
3726;SDS011;1879;45.876;12.300;2024-03-17T04:55:47;66.20;;;59.10;;
3726;SDS011;1879;45.876;12.300;2024-03-17T04:58:15;69.87;;;62.97;;
3726;SDS011;1879;45.876;12.300;2024-03-17T05:00:42;69.13;;;62.53;;
3726;SDS011;1879;45.876;12.300;2024-03-17T05:03:09;74.67;;;66.30;;
3726;SDS011;1879;45.876;12.300;2024-03-17T05:05:35;76.13;;;68.33;;
3726;SDS011;1879;45.876;12.300;2024-03-17T05:08:02;76.83;;;68.90;;
3726;SDS011;1879;45.876;12.300;2024-03-17T05:10:30;69.03;;;62.30;;
3726;SDS011;1879;45.876;12.300;2024-03-17T05:12:56;65.13;;;58.67;;
3726;SDS011;1879;45.876;12.300;2024-03-17T05:15:26;69.90;;;63.00;;
3726;SDS011;1879;45.876;12.300;2024-03-17T05:17:53;64.43;;;57.90;;
3726;SDS011;1879;45.876;12.300;2024-03-17T05:20:20;71.07;;;64.03;;
3726;SDS011;1879;45.876;12.300;2024-03-17T05:22:48;68.53;;;61.43;;
3726;SDS011;1879;45.876;12.300;2024-03-17T05:25:15;65.50;;;59.03;;
3726;SDS011;1879;45.876;12.300;2024-03-17T05:27:42;71.97;;;64.90;;
3726;SDS011;1879;45.876;12.300;2024-03-17T05:30:10;73.10;;;65.70;;
3726;SDS011;1879;45.876;12.300;2024-03-17T05:32:38;71.63;;;64.43;;
3726;SDS011;1879;45.876;12.300;2024-03-17T05:35:05;68.83;;;61.50;;
3726;SDS011;1879;45.876;12.300;2024-03-17T05:37:34;72.07;;;64.63;;
3726;SDS011;1879;45.876;12.300;2024-03-17T05:40:00;75.17;;;67.80;;
3726;SDS011;1879;45.876;12.300;2024-03-17T05:42:27;80.50;;;72.27;;
3726;SDS011;1879;45.876;12.300;2024-03-17T05:44:54;79.17;;;70.80;;
3726;SDS011;1879;45.876;12.300;2024-03-17T05:47:21;80.20;;;72.10;;
3726;SDS011;1879;45.876;12.300;2024-03-17T05:49:50;77.27;;;69.47;;
3726;SDS011;1879;45.876;12.300;2024-03-17T05:52:16;79.20;;;71.07;;
3726;SDS011;1879;45.876;12.300;2024-03-17T05:54:43;83.73;;;75.50;;
3726;SDS011;1879;45.876;12.300;2024-03-17T05:57:10;87.33;;;78.50;;
3726;SDS011;1879;45.876;12.300;2024-03-17T05:59:39;79.20;;;71.43;;
3726;SDS011;1879;45.876;12.300;2024-03-17T06:02:06;79.97;;;71.80;;
3726;SDS011;1879;45.876;12.300;2024-03-17T06:04:35;71.70;;;64.13;;
3726;SDS011;1879;45.876;12.300;2024-03-17T06:07:05;75.63;;;68.13;;
3726;SDS011;1879;45.876;12.300;2024-03-17T06:09:32;70.23;;;63.20;;
3726;SDS011;1879;45.876;12.300;2024-03-17T06:11:59;70.57;;;63.37;;
3726;SDS011;1879;45.876;12.300;2024-03-17T06:14:25;68.47;;;61.77;;
3726;SDS011;1879;45.876;12.300;2024-03-17T06:16:52;71.30;;;64.10;;
3726;SDS011;1879;45.876;12.300;2024-03-17T06:19:19;71.17;;;64.37;;
3726;SDS011;1879;45.876;12.300;2024-03-17T06:21:46;66.13;;;59.60;;
3726;SDS011;1879;45.876;12.300;2024-03-17T06:24:14;61.60;;;55.30;;
3726;SDS011;1879;45.876;12.300;2024-03-17T06:26:41;65.63;;;59.13;;
3726;SDS011;1879;45.876;12.300;2024-03-17T06:29:08;76.70;;;69.40;;
3726;SDS011;1879;45.876;12.300;2024-03-17T06:31:35;84.20;;;76.13;;
3726;SDS011;1879;45.876;12.300;2024-03-17T06:34:02;73.53;;;66.30;;
3726;SDS011;1879;45.876;12.300;2024-03-17T06:36:29;76.23;;;68.83;;
3726;SDS011;1879;45.876;12.300;2024-03-17T06:38:56;69.37;;;62.57;;
3726;SDS011;1879;45.876;12.300;2024-03-17T06:41:24;70.17;;;63.37;;
3726;SDS011;1879;45.876;12.300;2024-03-17T06:43:51;72.10;;;65.03;;
3726;SDS011;1879;45.876;12.300;2024-03-17T06:46:18;72.20;;;65.20;;
3726;SDS011;1879;45.876;12.300;2024-03-17T06:48:44;71.43;;;64.23;;
3726;SDS011;1879;45.876;12.300;2024-03-17T06:51:11;74.23;;;67.17;;
3726;SDS011;1879;45.876;12.300;2024-03-17T06:53:38;71.03;;;64.00;;
3726;SDS011;1879;45.876;12.300;2024-03-17T06:56:05;73.63;;;66.07;;
3726;SDS011;1879;45.876;12.300;2024-03-17T06:58:34;73.50;;;65.80;;
3726;SDS011;1879;45.876;12.300;2024-03-17T07:01:01;71.33;;;64.03;;
3726;SDS011;1879;45.876;12.300;2024-03-17T07:03:29;73.83;;;67.03;;
3726;SDS011;1879;45.876;12.300;2024-03-17T07:05:57;77.77;;;70.30;;
3726;SDS011;1879;45.876;12.300;2024-03-17T07:08:27;72.23;;;65.10;;
3726;SDS011;1879;45.876;12.300;2024-03-17T07:10:55;73.27;;;66.43;;
3726;SDS011;1879;45.876;12.300;2024-03-17T07:13:22;81.70;;;73.80;;
3726;SDS011;1879;45.876;12.300;2024-03-17T07:15:50;77.87;;;70.57;;
3726;SDS011;1879;45.876;12.300;2024-03-17T07:18:19;80.23;;;72.17;;
3726;SDS011;1879;45.876;12.300;2024-03-17T07:20:45;79.90;;;72.20;;
3726;SDS011;1879;45.876;12.300;2024-03-17T07:23:13;81.93;;;74.50;;
3726;SDS011;1879;45.876;12.300;2024-03-17T07:25:40;81.20;;;73.37;;
3726;SDS011;1879;45.876;12.300;2024-03-17T07:28:07;84.20;;;76.00;;
3726;SDS011;1879;45.876;12.300;2024-03-17T07:30:34;84.43;;;76.03;;
3726;SDS011;1879;45.876;12.300;2024-03-17T07:33:04;85.13;;;77.03;;
3726;SDS011;1879;45.876;12.300;2024-03-17T07:35:30;79.87;;;72.17;;
3726;SDS011;1879;45.876;12.300;2024-03-17T07:37:58;85.17;;;76.77;;
3726;SDS011;1879;45.876;12.300;2024-03-17T07:40:25;80.63;;;72.63;;
3726;SDS011;1879;45.876;12.300;2024-03-17T07:42:52;85.43;;;77.03;;
3726;SDS011;1879;45.876;12.300;2024-03-17T07:45:19;88.20;;;79.50;;
3726;SDS011;1879;45.876;12.300;2024-03-17T07:47:46;88.10;;;79.80;;
3726;SDS011;1879;45.876;12.300;2024-03-17T07:50:18;85.17;;;76.37;;
3726;SDS011;1879;45.876;12.300;2024-03-17T07:52:44;82.20;;;73.97;;
3726;SDS011;1879;45.876;12.300;2024-03-17T07:55:11;91.77;;;82.90;;
3726;SDS011;1879;45.876;12.300;2024-03-17T07:57:38;84.30;;;76.17;;
3726;SDS011;1879;45.876;12.300;2024-03-17T08:00:06;84.97;;;76.60;;
3726;SDS011;1879;45.876;12.300;2024-03-17T08:02:40;82.60;;;74.70;;
3726;SDS011;1879;45.876;12.300;2024-03-17T08:05:07;84.33;;;76.23;;
3726;SDS011;1879;45.876;12.300;2024-03-17T08:07:37;88.23;;;79.37;;
3726;SDS011;1879;45.876;12.300;2024-03-17T08:10:04;86.00;;;77.50;;
3726;SDS011;1879;45.876;12.300;2024-03-17T08:12:32;85.13;;;76.50;;
3726;SDS011;1879;45.876;12.300;2024-03-17T08:14:58;87.10;;;79.00;;
3726;SDS011;1879;45.876;12.300;2024-03-17T08:17:25;89.77;;;80.80;;
3726;SDS011;1879;45.876;12.300;2024-03-17T08:19:53;83.40;;;75.43;;
3726;SDS011;1879;45.876;12.300;2024-03-17T08:22:20;86.67;;;78.70;;
3726;SDS011;1879;45.876;12.300;2024-03-17T08:24:48;86.40;;;78.40;;
3726;SDS011;1879;45.876;12.300;2024-03-17T08:27:15;86.87;;;78.67;;
3726;SDS011;1879;45.876;12.300;2024-03-17T08:29:42;87.50;;;78.57;;
3726;SDS011;1879;45.876;12.300;2024-03-17T08:32:10;85.67;;;76.97;;
3726;SDS011;1879;45.876;12.300;2024-03-17T08:34:38;84.60;;;76.90;;
3726;SDS011;1879;45.876;12.300;2024-03-17T08:37:05;85.83;;;77.63;;
3726;SDS011;1879;45.876;12.300;2024-03-17T08:39:34;88.83;;;80.07;;
3726;SDS011;1879;45.876;12.300;2024-03-17T08:42:02;81.20;;;73.53;;
3726;SDS011;1879;45.876;12.300;2024-03-17T08:44:29;85.77;;;77.67;;
3726;SDS011;1879;45.876;12.300;2024-03-17T08:46:56;85.07;;;77.27;;
3726;SDS011;1879;45.876;12.300;2024-03-17T08:49:23;87.97;;;79.80;;
3726;SDS011;1879;45.876;12.300;2024-03-17T08:51:51;83.93;;;76.07;;
3726;SDS011;1879;45.876;12.300;2024-03-17T08:54:18;81.10;;;73.87;;
3726;SDS011;1879;45.876;12.300;2024-03-17T08:56:45;82.83;;;75.20;;
3726;SDS011;1879;45.876;12.300;2024-03-17T08:59:13;82.87;;;75.37;;
3726;SDS011;1879;45.876;12.300;2024-03-17T09:01:40;85.80;;;77.40;;
3726;SDS011;1879;45.876;12.300;2024-03-17T09:04:07;84.00;;;75.90;;
3726;SDS011;1879;45.876;12.300;2024-03-17T09:06:36;84.13;;;76.03;;
3726;SDS011;1879;45.876;12.300;2024-03-17T09:09:03;81.33;;;73.13;;
3726;SDS011;1879;45.876;12.300;2024-03-17T09:11:31;84.20;;;76.53;;
3726;SDS011;1879;45.876;12.300;2024-03-17T09:13:59;78.00;;;70.10;;
3726;SDS011;1879;45.876;12.300;2024-03-17T09:16:28;81.37;;;73.50;;
3726;SDS011;1879;45.876;12.300;2024-03-17T09:18:55;80.50;;;72.90;;
3726;SDS011;1879;45.876;12.300;2024-03-17T09:21:22;81.20;;;73.10;;
3726;SDS011;1879;45.876;12.300;2024-03-17T09:23:49;79.47;;;71.97;;
3726;SDS011;1879;45.876;12.300;2024-03-17T09:26:16;80.73;;;72.80;;
3726;SDS011;1879;45.876;12.300;2024-03-17T09:28:43;81.37;;;73.50;;
3726;SDS011;1879;45.876;12.300;2024-03-17T09:31:10;81.80;;;74.13;;
3726;SDS011;1879;45.876;12.300;2024-03-17T09:33:39;81.97;;;74.00;;
3726;SDS011;1879;45.876;12.300;2024-03-17T09:36:06;81.30;;;73.70;;
3726;SDS011;1879;45.876;12.300;2024-03-17T09:38:36;79.83;;;72.30;;
3726;SDS011;1879;45.876;12.300;2024-03-17T09:41:03;88.27;;;79.87;;
3726;SDS011;1879;45.876;12.300;2024-03-17T09:43:31;83.10;;;75.17;;
3726;SDS011;1879;45.876;12.300;2024-03-17T09:46:01;82.33;;;74.33;;
3726;SDS011;1879;45.876;12.300;2024-03-17T09:48:28;80.07;;;71.90;;
3726;SDS011;1879;45.876;12.300;2024-03-17T09:50:57;78.57;;;70.73;;
3726;SDS011;1879;45.876;12.300;2024-03-17T09:53:26;82.73;;;75.03;;
3726;SDS011;1879;45.876;12.300;2024-03-17T09:55:56;77.17;;;70.20;;
3726;SDS011;1879;45.876;12.300;2024-03-17T09:58:24;78.53;;;71.03;;
3726;SDS011;1879;45.876;12.300;2024-03-17T10:00:51;77.13;;;70.10;;
3726;SDS011;1879;45.876;12.300;2024-03-17T10:06:09;67.70;;;61.20;;
3726;SDS011;1879;45.876;12.300;2024-03-17T10:08:42;66.73;;;60.53;;
3726;SDS011;1879;45.876;12.300;2024-03-17T10:11:11;74.80;;;67.60;;
3726;SDS011;1879;45.876;12.300;2024-03-17T10:13:38;68.70;;;62.30;;
3726;SDS011;1879;45.876;12.300;2024-03-17T10:16:06;67.63;;;61.33;;
3726;SDS011;1879;45.876;12.300;2024-03-17T10:18:32;68.50;;;62.20;;
3726;SDS011;1879;45.876;12.300;2024-03-17T10:20:59;64.50;;;58.20;;
3726;SDS011;1879;45.876;12.300;2024-03-17T10:23:28;66.50;;;60.53;;
3726;SDS011;1879;45.876;12.300;2024-03-17T10:25:55;68.03;;;61.77;;
3726;SDS011;1879;45.876;12.300;2024-03-17T10:28:22;65.53;;;59.40;;
3726;SDS011;1879;45.876;12.300;2024-03-17T10:30:59;58.03;;;52.50;;
3726;SDS011;1879;45.876;12.300;2024-03-17T10:33:26;59.57;;;54.07;;
3726;SDS011;1879;45.876;12.300;2024-03-17T10:36:00;56.47;;;51.47;;
3726;SDS011;1879;45.876;12.300;2024-03-17T10:38:29;58.13;;;52.43;;
3726;SDS011;1879;45.876;12.300;2024-03-17T10:40:56;56.57;;;51.40;;
3726;SDS011;1879;45.876;12.300;2024-03-17T10:43:23;59.43;;;54.03;;
3726;SDS011;1879;45.876;12.300;2024-03-17T10:45:53;65.07;;;58.97;;
3726;SDS011;1879;45.876;12.300;2024-03-17T10:48:25;63.73;;;57.93;;
3726;SDS011;1879;45.876;12.300;2024-03-17T10:50:58;64.07;;;58.27;;
3726;SDS011;1879;45.876;12.300;2024-03-17T10:53:29;64.27;;;58.37;;
3726;SDS011;1879;45.876;12.300;2024-03-17T10:56:00;64.17;;;58.50;;
3726;SDS011;1879;45.876;12.300;2024-03-17T10:58:34;60.80;;;55.00;;
3726;SDS011;1879;45.876;12.300;2024-03-17T11:01:02;63.47;;;57.57;;
3726;SDS011;1879;45.876;12.300;2024-03-17T11:03:31;63.10;;;57.10;;
3726;SDS011;1879;45.876;12.300;2024-03-17T11:05:59;62.17;;;56.57;;
3726;SDS011;1879;45.876;12.300;2024-03-17T11:08:30;69.20;;;62.97;;
3726;SDS011;1879;45.876;12.300;2024-03-17T11:10:58;62.73;;;57.03;;
3726;SDS011;1879;45.876;12.300;2024-03-17T11:13:26;65.13;;;59.13;;
3726;SDS011;1879;45.876;12.300;2024-03-17T11:15:54;59.20;;;53.67;;
3726;SDS011;1879;45.876;12.300;2024-03-17T11:18:31;60.97;;;55.03;;
3726;SDS011;1879;45.876;12.300;2024-03-17T11:21:03;58.17;;;52.57;;
3726;SDS011;1879;45.876;12.300;2024-03-17T11:23:37;58.37;;;53.13;;
3726;SDS011;1879;45.876;12.300;2024-03-17T11:26:05;59.23;;;54.10;;
3726;SDS011;1879;45.876;12.300;2024-03-17T11:28:46;58.40;;;52.80;;
3726;SDS011;1879;45.876;12.300;2024-03-17T11:34:06;63.27;;;57.67;;
3726;SDS011;1879;45.876;12.300;2024-03-17T11:36:52;64.00;;;57.67;;
3726;SDS011;1879;45.876;12.300;2024-03-17T11:39:20;65.87;;;59.70;;
3726;SDS011;1879;45.876;12.300;2024-03-17T11:41:50;67.07;;;60.77;;
3726;SDS011;1879;45.876;12.300;2024-03-17T11:44:23;64.77;;;58.87;;
3726;SDS011;1879;45.876;12.300;2024-03-17T11:46:52;63.53;;;57.70;;
3726;SDS011;1879;45.876;12.300;2024-03-17T11:49:20;72.37;;;65.77;;
3726;SDS011;1879;45.876;12.300;2024-03-17T11:51:47;70.97;;;64.30;;
3726;SDS011;1879;45.876;12.300;2024-03-17T11:54:15;70.20;;;64.07;;
3726;SDS011;1879;45.876;12.300;2024-03-17T11:56:47;69.17;;;63.00;;
3726;SDS011;1879;45.876;12.300;2024-03-17T11:59:14;66.87;;;60.77;;
3726;SDS011;1879;45.876;12.300;2024-03-17T12:01:43;70.63;;;64.13;;
3726;SDS011;1879;45.876;12.300;2024-03-17T12:04:10;73.10;;;66.37;;
3726;SDS011;1879;45.876;12.300;2024-03-17T12:06:38;73.13;;;66.97;;
3726;SDS011;1879;45.876;12.300;2024-03-17T12:09:08;68.50;;;62.40;;
3726;SDS011;1879;45.876;12.300;2024-03-17T12:11:36;72.00;;;65.90;;
3726;SDS011;1879;45.876;12.300;2024-03-17T12:16:52;77.83;;;70.73;;
3726;SDS011;1879;45.876;12.300;2024-03-17T12:19:19;73.40;;;66.80;;
3726;SDS011;1879;45.876;12.300;2024-03-17T12:21:47;71.33;;;64.60;;
3726;SDS011;1879;45.876;12.300;2024-03-17T12:24:16;72.10;;;65.30;;
3726;SDS011;1879;45.876;12.300;2024-03-17T12:26:45;73.20;;;67.07;;
3726;SDS011;1879;45.876;12.300;2024-03-17T12:29:26;73.23;;;66.83;;
3726;SDS011;1879;45.876;12.300;2024-03-17T12:31:58;72.37;;;66.17;;
3726;SDS011;1879;45.876;12.300;2024-03-17T12:34:27;75.63;;;69.00;;
3726;SDS011;1879;45.876;12.300;2024-03-17T12:36:55;72.13;;;65.53;;
3726;SDS011;1879;45.876;12.300;2024-03-17T12:39:23;71.73;;;65.47;;
3726;SDS011;1879;45.876;12.300;2024-03-17T12:42:02;74.37;;;67.80;;
3726;SDS011;1879;45.876;12.300;2024-03-17T12:44:32;71.77;;;65.23;;
3726;SDS011;1879;45.876;12.300;2024-03-17T12:47:00;71.10;;;64.30;;
3726;SDS011;1879;45.876;12.300;2024-03-17T12:49:28;71.70;;;65.20;;
3726;SDS011;1879;45.876;12.300;2024-03-17T12:51:55;70.30;;;63.80;;
3726;SDS011;1879;45.876;12.300;2024-03-17T12:54:22;70.77;;;64.57;;
3726;SDS011;1879;45.876;12.300;2024-03-17T12:56:51;71.07;;;64.63;;
3726;SDS011;1879;45.876;12.300;2024-03-17T12:59:41;72.30;;;65.83;;
3726;SDS011;1879;45.876;12.300;2024-03-17T13:02:26;77.67;;;70.80;;
3726;SDS011;1879;45.876;12.300;2024-03-17T13:07:43;75.13;;;67.90;;
3726;SDS011;1879;45.876;12.300;2024-03-17T13:10:12;73.43;;;66.93;;
3726;SDS011;1879;45.876;12.300;2024-03-17T13:12:39;71.80;;;65.60;;
3726;SDS011;1879;45.876;12.300;2024-03-17T13:15:08;67.80;;;61.60;;
3726;SDS011;1879;45.876;12.300;2024-03-17T13:17:37;67.50;;;60.90;;
3726;SDS011;1879;45.876;12.300;2024-03-17T13:20:05;65.57;;;59.67;;
3726;SDS011;1879;45.876;12.300;2024-03-17T13:22:36;65.13;;;59.13;;
3726;SDS011;1879;45.876;12.300;2024-03-17T13:25:05;66.30;;;60.27;;
3726;SDS011;1879;45.876;12.300;2024-03-17T13:27:35;68.77;;;62.40;;
3726;SDS011;1879;45.876;12.300;2024-03-17T13:30:02;65.30;;;59.17;;
3726;SDS011;1879;45.876;12.300;2024-03-17T13:32:32;69.13;;;62.87;;
3726;SDS011;1879;45.876;12.300;2024-03-17T13:34:59;70.57;;;64.20;;
3726;SDS011;1879;45.876;12.300;2024-03-17T13:37:26;74.60;;;67.93;;
3726;SDS011;1879;45.876;12.300;2024-03-17T13:39:53;70.83;;;64.37;;
3726;SDS011;1879;45.876;12.300;2024-03-17T13:42:20;70.93;;;64.80;;
3726;SDS011;1879;45.876;12.300;2024-03-17T13:44:47;70.20;;;64.03;;
3726;SDS011;1879;45.876;12.300;2024-03-17T13:47:14;70.27;;;63.83;;
3726;SDS011;1879;45.876;12.300;2024-03-17T13:49:43;70.60;;;63.80;;
3726;SDS011;1879;45.876;12.300;2024-03-17T13:52:11;73.53;;;66.90;;
3726;SDS011;1879;45.876;12.300;2024-03-17T13:54:38;72.93;;;65.90;;
3726;SDS011;1879;45.876;12.300;2024-03-17T13:57:05;70.13;;;63.80;;
3726;SDS011;1879;45.876;12.300;2024-03-17T13:59:32;69.07;;;62.90;;
3726;SDS011;1879;45.876;12.300;2024-03-17T14:02:00;71.50;;;65.33;;
3726;SDS011;1879;45.876;12.300;2024-03-17T14:04:28;75.10;;;68.40;;
3726;SDS011;1879;45.876;12.300;2024-03-17T14:06:57;73.43;;;66.80;;
3726;SDS011;1879;45.876;12.300;2024-03-17T14:09:24;71.87;;;65.53;;
3726;SDS011;1879;45.876;12.300;2024-03-17T14:11:51;71.50;;;65.07;;
3726;SDS011;1879;45.876;12.300;2024-03-17T14:14:18;71.63;;;65.30;;
3726;SDS011;1879;45.876;12.300;2024-03-17T14:16:45;70.97;;;64.40;;
3726;SDS011;1879;45.876;12.300;2024-03-17T14:19:12;70.27;;;63.87;;
3726;SDS011;1879;45.876;12.300;2024-03-17T14:21:38;72.37;;;65.53;;
3726;SDS011;1879;45.876;12.300;2024-03-17T14:24:21;74.50;;;67.30;;
3726;SDS011;1879;45.876;12.300;2024-03-17T14:27:02;72.40;;;65.87;;
3726;SDS011;1879;45.876;12.300;2024-03-17T14:29:29;74.97;;;67.93;;
3726;SDS011;1879;45.876;12.300;2024-03-17T14:31:56;72.70;;;65.90;;
3726;SDS011;1879;45.876;12.300;2024-03-17T14:34:33;75.77;;;69.00;;
3726;SDS011;1879;45.876;12.300;2024-03-17T14:37:04;73.37;;;66.73;;
3726;SDS011;1879;45.876;12.300;2024-03-17T14:39:33;69.83;;;63.17;;
3726;SDS011;1879;45.876;12.300;2024-03-17T14:42:00;75.20;;;68.17;;
3726;SDS011;1879;45.876;12.300;2024-03-17T14:44:27;71.43;;;64.60;;
3726;SDS011;1879;45.876;12.300;2024-03-17T14:46:54;75.50;;;68.83;;
3726;SDS011;1879;45.876;12.300;2024-03-17T14:49:20;77.77;;;70.37;;